Questo sito fa uso di cookie per migliorare l’esperienza di navigazione degli utenti e per raccogliere informazioni sull’utilizzo del sito stesso. Proseguendo nella navigazione si accetta l’uso dei cookie; in caso contrario è possibile abbandonare il sito.

[source: ADDS]
METAR
LIPA 231255Z 20006KT 9999 FEW060 32/25 Q1014 RMK FEW VIS MIN 9999 WIND THR05 19006KT WIND THR23 13004KT A2996 BLU =
LIPB 231250Z 20002KT 9999 FEW100 36/16 Q1012 =
LIPC 231255Z 10006KT CAVOK 33/23 Q1014 RMK SKC VIS MIN 9999 WIND THR11 10007KT WIND THR29 09008KT BLU =
LIPE 231320Z 18006KT 120V230 CAVOK 35/19 Q1015 =
LIPF 231255Z 24006KT CAVOK 37/25 Q1014 RMK SKC VIS MIN 9999 =
LIPH 231320Z VRB04KT CAVOK 33/21 Q1013 =
LIPI 231255Z /////KT 9999 FEW025 31/23 Q1014 RMK BKN SCT200 VIS MIN 9999 WIND THR06 VRB03KT WIND THR24 VRB03KT BLU =
LIPK 231250Z 22007KT CAVOK 35/21 Q1014 =
LIPL 231255Z /////KT CAVOK 32/23 Q1014 RMK BKN BKN200 VIS MIN 9999 WIND THR31 27009KT BLU =
LIPO 231250Z 26013KT CAVOK 33/19 Q1014 =
LIPQ 231320Z 20008KT 150V220 CAVOK 30/23 Q1014 =
LIPR 231315Z 07009KT CAVOK 33/22 Q1014 =
LIPS 231255Z 19007KT CAVOK 33/25 Q1014 RMK SCT SCT180 VIS MIN 9999 WIND THR26 25003KT WIND THR08 19003KT BLU =
LIPX 231320Z 24010KT CAVOK 34/20 Q1014 =
LIPY 231250Z 06010KT 030V090 CAVOK 31/16 Q1015 =
LIPZ 231320Z 11007KT 080V140 CAVOK 32/22 Q1013 NOSIG =
LIVC 231255Z 23008KT 9999 BKN001TCU 19/15 Q1030 RMK BKN MON CLD CIME VAL NIL VIS MIN 9999 =
LIVD 231255Z /////KT 9999 SCT040 27/11 Q1022 RMK BKN BKN200 VIS MIN 9999 =
LIVE 231255Z 06006KT 9999 SCT040 25/05 Q1023 RMK SCT VIS MIN 9999 =
LIVF 231255Z 25014KT CAVOK 32/14 Q1018 RMK SKC MON LIB VAL NIL VIS MIN 9999 =
LIVO 231255Z 28005KT 9999 SCT035 31/16 Q1015 RMK BKN SCT060 VIS MIN 9999 =
LIVP 231255Z 24010KT 9999 +TSRA FEW015CB FEW020TCU SCT040 15/07 Q1027 RMK BKN MON LIB VAL NIL VIS MIN 9999 =
LIVR 231255Z 31011KT 9999 SCT035 17/01 Q1026 RMK SCT MON CLD CIME VIS MIN 9999 =
LIVT 231255Z 28002KT CAVOK 29/25 Q1014 RMK SKC QUK 1 QUL 0 VIS MAR 20 KM VIS MIN 9999 =
LIMC 231320Z 24008KT 210V270 CAVOK 32/20 Q1016 NOSIG =
LIME 231320Z 25014G24KT CAVOK 33/20 Q1015 NOSIG =
LIMF 231320Z VRB03KT CAVOK 33/20 Q1016 =
LIMG 231250Z 10008KT 9999 SCT025 BKN060 27/22 Q1019 =
LIMH 231255Z /////KT 9999 BKN020 07/01 Q1039 RMK BKN MON CIME INC VAL FOSCHIA VIS MIN 9999 =
LIMJ 231320Z 15006KT 120V180 9999 SCT016 SCT035 27/22 Q1019 =
LIMK 231255Z 30004KT CAVOK 29/21 Q1019 RMK SKC VAL FOSCHIA SKC SUP VIS MIN 9999 =
LIML 231320Z 25010KT 200V290 CAVOK 33/21 Q1014 NOSIG =
LIMN 231255Z 24009KT 9999 FEW030 32/22 Q1016 RMK SCT SCT200 VIS MIN 9999 BLU =
LIMS 231255Z 35007KT 260V080 9999 FEW050 35/23 Q1014 RMK BKN BKN200 VIS MIN 9999 WIND THR30 36008KT BLU =
LIMT 231255Z 20013KT 9999 SCT012 22/19 Q1022 RMK SCT MON LIB VAL NIL VIS MIN 9999 =
LIMU 231255Z 04005KT 9999 FEW008 BKN015 26/24 Q1020 RMK OVC OVC080 QUK 1 QUL 1 S VIS MAR 10 KM VIS MIN 9999 =
LIMV 231255Z /////KT 8000 SCT009 BKN012 22/19 Q1020 RMK OVC MON GEN INC NC VAL FOSCHIA VIS MIN 8000 =
LIMY 231255Z 10014KT 9999 FEW025 31/24 Q1019 RMK BKN SCT200 VAL NIL VIS MIN 9999 =
TAF
TAF COR LIPA 231100Z 2312/2321 10006KT 9999 FEW090 =
TAF LIPB 231100Z 2312/2412 18010KT CAVOK TEMPO 2314/2318 SHRA BECMG 2318/2320 VRB05KT =
TAF LIPC 231100Z 2312/2321 05010KT CAVOK TEMPO 2312/2318 11020KT =
TAF LIPE 231100Z 2312/2412 VRB05KT CAVOK =
TAF LIPH 231100Z 2312/2412 VRB05KT CAVOK =
TAF LIPI 231100Z 2312/2321 VRB05KT 9999 FEW025 =
TAF LIPL 231100Z 2312/2321 28010KT CAVOK =
TAF LIPO 231100Z 2312/2412 27008KT CAVOK =
TAF LIPQ 231100Z 2312/2412 22010KT CAVOK BECMG 2318/2320 VRB05KT =
TAF LIPR 231100Z 2312/2321 05010KT CAVOK TEMPO 2312/2318 11020KT =
TAF LIPS 231100Z 2312/2321 VRB05KT CAVOK TEMPO 2314/2318 15010KT FEW050 =
TAF LIPX 231100Z 2312/2321 24008KT CAVOK =
TAF LIPY 231100Z 2312/2412 080012KT CAVOK BECMG 2318/2320 VRB05KT =
TAF LIPZ 231100Z 2312/2418 15010KT CAVOK BECMG 2318/2320 VRB05KT BECMG 2410/2412 15010KT =
TAF LIMC 231100Z 2312/2418 22007KT CAVOK =
TAF LIME 231100Z 2312/2412 26007KT CAVOK =
TAF LIMF 231100Z 2312/2412 VRB05KT CAVOK =
TAF LIMJ 231100Z 2312/2412 15008KT 9999 BKN020 =
TAF LIML 231100Z 2312/2412 24007KT CAVOK =
TAF COR LIMN 231100Z 2312/2321 29005KT CAVOK TEMPO 2309/2315 30015KT =
TAF LIMS 231100Z 2312/2321 30005KT CAVOK TEMPO 2312/2318 30015KT =
SR / SS: 03:25 / 19:05 UTC (Effemeridi Aeroporto di Padova - LIPU 2017-06-23)

Immagini e previsioni meteo non aeronautiche

 

 

Immagini dal Radar Meteorologico del sito ARPAV. Orario UTC.

 

Immagine dal sito Meteo Sat Online

 

Legenda codici ICAO del nord Italia

 

In ordine di codice   In ordine di località
LIMC
Milano / Malpensa LIMG Albenga
LIME Bergamo / Orio Al Serio LIPA Aviano
LIMF Torino / Caselle LIME Bergamo / Orio Al Serio
LIMG Albenga LIPE Bologna / Borgo Panigale
LIMH Pian Rosa LIPB Bolzano
LIMJ Genova / Sestri LIPL Brescia / Ghedi
LIMK Torino / Bric Della Croce LIPO Brescia / Montichiari
LIML Milano / Linate LIMU Capo Mele
LIMN Novara / Cameri LIPC Cervia
LIMO Monte Bisbino LIVD Dobbiaco
LIMS Piacenza LIPP Dova Area Control Center
LIMT Passo Della Cisa LIPY Falconara
LIMU Capo Mele LIPF Ferrara
LIMV Passo Dei Giovi LIPK Forli
LIMY Monte Malanotte LIVF Frontone
LIPA Aviano LIMJ Genova / Sestri
LIPB Bolzano LIML Milano / Linate
LIPC Cervia
LIMC
Milano / Malpensa
LIPD Udine / Campoformido LIMO Monte Bisbino
LIPE Bologna / Borgo Panigale LIVC Monte Cimone
LIPF Ferrara LIMY Monte Malanotte
LIPH Treviso / S. Angelo LIMN Novara / Cameri
LIPI Udine / Rivolto LIPU Padova
LIPK Forli LIVP Paganella
LIPL Brescia / Ghedi LIMV Passo Dei Giovi
LIPO Brescia / Montichiari LIMT Passo Della Cisa
LIPP Dova Area Control Center LIVR Passo Rolle
LIPQ Ronchi Dei Legionari LIMS Piacenza
LIPR Rimini LIMH Pian Rosa
LIPS Treviso / Istrana LIVM Punta Marina
LIPT Vicenza LIVE Resia Pass
LIPU Padova LIPR Rimini
LIPX Verona / Villafranca LIPQ Ronchi Dei Legionari
LIPY Falconara LIVO Tarvisio
LIPZ Venezia / Tessera LIMK Torino / Bric Della Croce
LIVC Monte Cimone LIMF Torino / Caselle
LIVD Dobbiaco LIPS Treviso / Istrana
LIVE Resia Pass LIPH Treviso / S. Angelo
LIVF Frontone LIVT
Trieste
LIVM Punta Marina LIPD Udine / Campoformido
LIVO Tarvisio LIPI Udine / Rivolto
LIVP Paganella LIPZ Venezia / Tessera
LIVR Passo Rolle LIPX Verona / Villafranca
LIVT Trieste LIPT Vicenza

 

 

 

 

 

 

 

 

 

 

 

 

 

 

 

 

 

 

 

 

 

 

 

 

 

 

 

 

 

 

 

 

 

 

 

 

 

 

 

 

 

 

 

 

 

 

 

 

 

 

 

 

 

 

 

 

 

 

 

 

L'Aeroclub di Padova si limita a riportare informazioni fornite da terze parti, e non ha quindi alcuna responsabilità sul contenuto. Per la pianificazione dei propri voli si raccomanda l'utilizzo delle fonti ufficiali.

Copyright 2011. Free joomla templates | © Aeroclub Padova - Scuola di Volo, Ditta di manutenzione, CAMO Via Sorio, 89 - 35141 Padova Tel. 049 8718599 Fax 049 8717699 info@aeroclubpadova.it